sensor_id;sensor_type;location;lat;lon;timestamp;temperature;humidity
4386;DHT22;2207;53.540;10.042;2024-03-17T00:02:17;4.30;89.20
4386;DHT22;2207;53.540;10.042;2024-03-17T00:04:45;4.30;89.30
4386;DHT22;2207;53.540;10.042;2024-03-17T00:07:12;4.20;89.30
4386;DHT22;2207;53.540;10.042;2024-03-17T00:09:39;4.20;89.50
4386;DHT22;2207;53.540;10.042;2024-03-17T00:12:06;4.10;89.70
4386;DHT22;2207;53.540;10.042;2024-03-17T00:14:33;4.00;89.90
4386;DHT22;2207;53.540;10.042;2024-03-17T00:17:00;4.00;90.00
4386;DHT22;2207;53.540;10.042;2024-03-17T00:19:27;3.90;90.10
4386;DHT22;2207;53.540;10.042;2024-03-17T00:21:53;3.90;90.30
4386;DHT22;2207;53.540;10.042;2024-03-17T00:24:21;3.90;90.40
4386;DHT22;2207;53.540;10.042;2024-03-17T00:26:47;3.90;90.60
4386;DHT22;2207;53.540;10.042;2024-03-17T00:29:14;3.90;90.60
4386;DHT22;2207;53.540;10.042;2024-03-17T00:31:40;3.90;90.60
4386;DHT22;2207;53.540;10.042;2024-03-17T00:34:07;3.90;90.60
4386;DHT22;2207;53.540;10.042;2024-03-17T00:36:33;3.90;90.70
4386;DHT22;2207;53.540;10.042;2024-03-17T00:38:59;3.80;90.70
4386;DHT22;2207;53.540;10.042;2024-03-17T00:41:27;3.80;90.80
4386;DHT22;2207;53.540;10.042;2024-03-17T00:43:54;3.80;91.00
4386;DHT22;2207;53.540;10.042;2024-03-17T00:46:21;3.80;91.00
4386;DHT22;2207;53.540;10.042;2024-03-17T00:48:48;3.80;91.10
4386;DHT22;2207;53.540;10.042;2024-03-17T00:51:14;3.90;91.30
4386;DHT22;2207;53.540;10.042;2024-03-17T00:53:41;3.90;91.80
4386;DHT22;2207;53.540;10.042;2024-03-17T00:56:07;4.20;92.10
4386;DHT22;2207;53.540;10.042;2024-03-17T00:58:35;4.30;91.80
4386;DHT22;2207;53.540;10.042;2024-03-17T01:01:01;4.30;91.50
4386;DHT22;2207;53.540;10.042;2024-03-17T01:03:28;4.40;91.60
4386;DHT22;2207;53.540;10.042;2024-03-17T01:05:54;4.40;91.60
4386;DHT22;2207;53.540;10.042;2024-03-17T01:08:21;4.50;91.50
4386;DHT22;2207;53.540;10.042;2024-03-17T01:10:48;4.50;91.50
4386;DHT22;2207;53.540;10.042;2024-03-17T01:13:16;4.60;91.70
4386;DHT22;2207;53.540;10.042;2024-03-17T01:15:43;4.70;91.60
4386;DHT22;2207;53.540;10.042;2024-03-17T01:18:10;4.70;91.40
4386;DHT22;2207;53.540;10.042;2024-03-17T01:20:36;4.70;91.40
4386;DHT22;2207;53.540;10.042;2024-03-17T01:23:04;4.70;91.30
4386;DHT22;2207;53.540;10.042;2024-03-17T01:25:30;4.80;91.10
4386;DHT22;2207;53.540;10.042;2024-03-17T01:27:57;4.70;90.80
4386;DHT22;2207;53.540;10.042;2024-03-17T01:30:23;4.60;91.00
4386;DHT22;2207;53.540;10.042;2024-03-17T01:32:52;4.60;91.30
4386;DHT22;2207;53.540;10.042;2024-03-17T01:35:18;4.70;91.50
4386;DHT22;2207;53.540;10.042;2024-03-17T01:37:45;4.60;91.00
4386;DHT22;2207;53.540;10.042;2024-03-17T01:40:11;4.50;90.60
4386;DHT22;2207;53.540;10.042;2024-03-17T01:42:39;4.40;90.60
4386;DHT22;2207;53.540;10.042;2024-03-17T01:45:25;4.30;90.80
4386;DHT22;2207;53.540;10.042;2024-03-17T01:47:55;4.10;90.70
4386;DHT22;2207;53.540;10.042;2024-03-17T01:50:23;4.00;90.90
4386;DHT22;2207;53.540;10.042;2024-03-17T01:52:53;4.00;91.00
4386;DHT22;2207;53.540;10.042;2024-03-17T01:55:20;3.90;91.00
4386;DHT22;2207;53.540;10.042;2024-03-17T01:57:48;3.80;91.10
4386;DHT22;2207;53.540;10.042;2024-03-17T02:00:16;3.80;91.20
4386;DHT22;2207;53.540;10.042;2024-03-17T02:02:42;3.70;91.30
4386;DHT22;2207;53.540;10.042;2024-03-17T02:05:10;3.80;91.40
4386;DHT22;2207;53.540;10.042;2024-03-17T02:07:36;3.70;91.40
4386;DHT22;2207;53.540;10.042;2024-03-17T02:10:04;3.70;91.40
4386;DHT22;2207;53.540;10.042;2024-03-17T02:12:31;3.80;91.70
4386;DHT22;2207;53.540;10.042;2024-03-17T02:14:57;3.90;92.10
4386;DHT22;2207;53.540;10.042;2024-03-17T02:17:24;4.00;92.00
4386;DHT22;2207;53.540;10.042;2024-03-17T02:19:51;4.10;91.90
4386;DHT22;2207;53.540;10.042;2024-03-17T02:22:19;4.20;91.70
4386;DHT22;2207;53.540;10.042;2024-03-17T02:24:45;4.30;91.80
4386;DHT22;2207;53.540;10.042;2024-03-17T02:27:12;4.30;91.60
4386;DHT22;2207;53.540;10.042;2024-03-17T02:29:38;4.30;91.40
4386;DHT22;2207;53.540;10.042;2024-03-17T02:32:05;4.30;91.50
4386;DHT22;2207;53.540;10.042;2024-03-17T02:34:33;4.30;91.80
4386;DHT22;2207;53.540;10.042;2024-03-17T02:37:00;4.40;91.80
4386;DHT22;2207;53.540;10.042;2024-03-17T02:39:27;4.40;91.70
4386;DHT22;2207;53.540;10.042;2024-03-17T02:42:05;4.40;91.80
4386;DHT22;2207;53.540;10.042;2024-03-17T02:44:31;4.50;91.70
4386;DHT22;2207;53.540;10.042;2024-03-17T02:46:58;4.50;91.50
4386;DHT22;2207;53.540;10.042;2024-03-17T02:49:25;4.40;91.50
4386;DHT22;2207;53.540;10.042;2024-03-17T02:51:53;4.40;91.40
4386;DHT22;2207;53.540;10.042;2024-03-17T02:54:20;4.30;91.20
4386;DHT22;2207;53.540;10.042;2024-03-17T02:56:49;4.20;91.10
4386;DHT22;2207;53.540;10.042;2024-03-17T02:59:16;4.00;91.10
4386;DHT22;2207;53.540;10.042;2024-03-17T03:01:42;3.90;91.10
4386;DHT22;2207;53.540;10.042;2024-03-17T03:04:10;3.70;91.20
4386;DHT22;2207;53.540;10.042;2024-03-17T03:06:37;3.60;91.30
4386;DHT22;2207;53.540;10.042;2024-03-17T03:09:04;3.50;91.50
4386;DHT22;2207;53.540;10.042;2024-03-17T03:11:38;3.40;91.60
4386;DHT22;2207;53.540;10.042;2024-03-17T03:14:06;3.30;91.60
4386;DHT22;2207;53.540;10.042;2024-03-17T03:16:33;3.30;91.80
4386;DHT22;2207;53.540;10.042;2024-03-17T03:19:00;3.20;91.80
4386;DHT22;2207;53.540;10.042;2024-03-17T03:21:27;3.20;91.90
4386;DHT22;2207;53.540;10.042;2024-03-17T03:23:54;3.20;92.00
4386;DHT22;2207;53.540;10.042;2024-03-17T03:26:20;3.20;92.00
4386;DHT22;2207;53.540;10.042;2024-03-17T03:28:49;3.20;91.90
4386;DHT22;2207;53.540;10.042;2024-03-17T03:31:18;3.20;92.00
4386;DHT22;2207;53.540;10.042;2024-03-17T03:33:45;3.10;91.90
4386;DHT22;2207;53.540;10.042;2024-03-17T03:36:13;3.10;92.10
4386;DHT22;2207;53.540;10.042;2024-03-17T03:38:40;3.10;92.10
4386;DHT22;2207;53.540;10.042;2024-03-17T03:41:08;3.00;92.10
4386;DHT22;2207;53.540;10.042;2024-03-17T03:43:35;3.00;92.30
4386;DHT22;2207;53.540;10.042;2024-03-17T03:46:02;3.00;92.20
4386;DHT22;2207;53.540;10.042;2024-03-17T03:48:31;3.00;92.20
4386;DHT22;2207;53.540;10.042;2024-03-17T03:51:02;2.90;92.30
4386;DHT22;2207;53.540;10.042;2024-03-17T03:53:30;2.90;92.60
4386;DHT22;2207;53.540;10.042;2024-03-17T03:55:57;2.90;92.60
4386;DHT22;2207;53.540;10.042;2024-03-17T03:58:25;2.90;92.50
4386;DHT22;2207;53.540;10.042;2024-03-17T04:00:51;2.80;92.50
4386;DHT22;2207;53.540;10.042;2024-03-17T04:03:18;2.80;92.50
4386;DHT22;2207;53.540;10.042;2024-03-17T04:05:46;2.80;92.50
4386;DHT22;2207;53.540;10.042;2024-03-17T04:08:13;2.80;92.50
4386;DHT22;2207;53.540;10.042;2024-03-17T04:10:40;2.70;92.50
4386;DHT22;2207;53.540;10.042;2024-03-17T04:13:07;2.70;92.50
4386;DHT22;2207;53.540;10.042;2024-03-17T04:15:34;2.60;92.70
4386;DHT22;2207;53.540;10.042;2024-03-17T04:18:01;2.60;93.40
4386;DHT22;2207;53.540;10.042;2024-03-17T04:20:27;2.80;93.60
4386;DHT22;2207;53.540;10.042;2024-03-17T04:22:56;2.90;93.90
4386;DHT22;2207;53.540;10.042;2024-03-17T04:25:24;3.10;93.80
4386;DHT22;2207;53.540;10.042;2024-03-17T04:27:50;3.30;93.80
4386;DHT22;2207;53.540;10.042;2024-03-17T04:30:17;3.40;93.70
4386;DHT22;2207;53.540;10.042;2024-03-17T04:32:44;3.50;93.60
4386;DHT22;2207;53.540;10.042;2024-03-17T04:35:11;3.60;93.60
4386;DHT22;2207;53.540;10.042;2024-03-17T04:37:38;3.80;93.70
4386;DHT22;2207;53.540;10.042;2024-03-17T04:40:08;3.90;93.70
4386;DHT22;2207;53.540;10.042;2024-03-17T04:42:38;4.00;93.70
4386;DHT22;2207;53.540;10.042;2024-03-17T04:45:07;4.10;93.70
4386;DHT22;2207;53.540;10.042;2024-03-17T04:47:35;4.10;93.60
4386;DHT22;2207;53.540;10.042;2024-03-17T04:50:02;4.20;93.50
4386;DHT22;2207;53.540;10.042;2024-03-17T04:52:30;4.20;93.50
4386;DHT22;2207;53.540;10.042;2024-03-17T04:54:57;4.20;93.30
4386;DHT22;2207;53.540;10.042;2024-03-17T04:57:25;4.20;93.40
4386;DHT22;2207;53.540;10.042;2024-03-17T04:59:52;4.20;93.50
4386;DHT22;2207;53.540;10.042;2024-03-17T05:02:19;4.20;93.50
4386;DHT22;2207;53.540;10.042;2024-03-17T05:04:45;4.20;93.50
4386;DHT22;2207;53.540;10.042;2024-03-17T05:07:12;4.30;93.50
4386;DHT22;2207;53.540;10.042;2024-03-17T05:09:39;4.30;93.50
4386;DHT22;2207;53.540;10.042;2024-03-17T05:12:06;4.30;93.50
4386;DHT22;2207;53.540;10.042;2024-03-17T05:14:35;4.30;93.30
4386;DHT22;2207;53.540;10.042;2024-03-17T05:17:02;4.40;93.30
4386;DHT22;2207;53.540;10.042;2024-03-17T05:19:29;4.40;93.20
4386;DHT22;2207;53.540;10.042;2024-03-17T05:21:56;4.30;92.80
4386;DHT22;2207;53.540;10.042;2024-03-17T05:24:22;4.20;92.50
4386;DHT22;2207;53.540;10.042;2024-03-17T05:26:49;4.10;92.60
4386;DHT22;2207;53.540;10.042;2024-03-17T05:29:16;4.00;92.70
4386;DHT22;2207;53.540;10.042;2024-03-17T05:31:44;3.80;92.70
4386;DHT22;2207;53.540;10.042;2024-03-17T05:34:12;3.80;93.00
4386;DHT22;2207;53.540;10.042;2024-03-17T05:36:42;3.60;92.80
4386;DHT22;2207;53.540;10.042;2024-03-17T05:39:09;3.50;92.80
4386;DHT22;2207;53.540;10.042;2024-03-17T05:41:36;3.50;92.90
4386;DHT22;2207;53.540;10.042;2024-03-17T05:44:03;3.40;93.00
4386;DHT22;2207;53.540;10.042;2024-03-17T05:46:30;3.40;93.10
4386;DHT22;2207;53.540;10.042;2024-03-17T05:48:58;3.30;93.10
4386;DHT22;2207;53.540;10.042;2024-03-17T05:51:25;3.30;93.10
4386;DHT22;2207;53.540;10.042;2024-03-17T05:53:53;3.30;93.10
4386;DHT22;2207;53.540;10.042;2024-03-17T05:56:21;3.30;93.20
4386;DHT22;2207;53.540;10.042;2024-03-17T05:58:49;3.30;93.30
4386;DHT22;2207;53.540;10.042;2024-03-17T06:01:16;3.30;93.30
4386;DHT22;2207;53.540;10.042;2024-03-17T06:03:44;3.30;93.30
4386;DHT22;2207;53.540;10.042;2024-03-17T06:06:13;3.30;93.30
4386;DHT22;2207;53.540;10.042;2024-03-17T06:08:40;3.30;93.30
4386;DHT22;2207;53.540;10.042;2024-03-17T06:11:07;3.40;93.50
4386;DHT22;2207;53.540;10.042;2024-03-17T06:13:34;3.40;93.50
4386;DHT22;2207;53.540;10.042;2024-03-17T06:16:02;3.40;93.50
4386;DHT22;2207;53.540;10.042;2024-03-17T06:18:31;3.50;93.50
4386;DHT22;2207;53.540;10.042;2024-03-17T06:20:58;3.60;93.60
4386;DHT22;2207;53.540;10.042;2024-03-17T06:23:26;3.60;93.70
4386;DHT22;2207;53.540;10.042;2024-03-17T06:25:54;3.70;93.70
4386;DHT22;2207;53.540;10.042;2024-03-17T06:28:22;3.80;94.10
4386;DHT22;2207;53.540;10.042;2024-03-17T06:30:56;3.90;93.80
4386;DHT22;2207;53.540;10.042;2024-03-17T06:33:25;4.00;93.70
4386;DHT22;2207;53.540;10.042;2024-03-17T06:35:52;4.10;93.70
4386;DHT22;2207;53.540;10.042;2024-03-17T06:38:19;4.20;93.70
4386;DHT22;2207;53.540;10.042;2024-03-17T06:40:51;4.40;93.70
4386;DHT22;2207;53.540;10.042;2024-03-17T06:43:19;4.50;93.60
4386;DHT22;2207;53.540;10.042;2024-03-17T06:45:55;4.60;93.50
4386;DHT22;2207;53.540;10.042;2024-03-17T06:48:22;4.70;93.40
4386;DHT22;2207;53.540;10.042;2024-03-17T06:50:49;4.90;93.50
4386;DHT22;2207;53.540;10.042;2024-03-17T06:53:17;5.00;93.50
4386;DHT22;2207;53.540;10.042;2024-03-17T06:55:53;5.10;93.50
4386;DHT22;2207;53.540;10.042;2024-03-17T06:58:20;5.20;93.40
4386;DHT22;2207;53.540;10.042;2024-03-17T07:00:53;5.40;93.30
4386;DHT22;2207;53.540;10.042;2024-03-17T07:03:20;5.50;93.20
4386;DHT22;2207;53.540;10.042;2024-03-17T07:05:51;5.70;93.20
4386;DHT22;2207;53.540;10.042;2024-03-17T07:08:18;5.80;93.10
4386;DHT22;2207;53.540;10.042;2024-03-17T07:10:56;6.00;93.10
4386;DHT22;2207;53.540;10.042;2024-03-17T07:13:23;6.20;93.00
4386;DHT22;2207;53.540;10.042;2024-03-17T07:15:50;6.40;93.00
4386;DHT22;2207;53.540;10.042;2024-03-17T07:18:17;6.80;93.40
4386;DHT22;2207;53.540;10.042;2024-03-17T07:20:44;7.80;94.90
4386;DHT22;2207;53.540;10.042;2024-03-17T07:23:13;9.10;94.00
4386;DHT22;2207;53.540;10.042;2024-03-17T07:25:40;10.00;90.20
4386;DHT22;2207;53.540;10.042;2024-03-17T07:28:09;10.00;85.50
4386;DHT22;2207;53.540;10.042;2024-03-17T07:30:36;9.70;85.60
4386;DHT22;2207;53.540;10.042;2024-03-17T07:33:03;9.30;85.50
4386;DHT22;2207;53.540;10.042;2024-03-17T07:35:30;9.00;85.70
4386;DHT22;2207;53.540;10.042;2024-03-17T07:37:57;8.70;86.30
4386;DHT22;2207;53.540;10.042;2024-03-17T07:40:23;8.40;86.60
4386;DHT22;2207;53.540;10.042;2024-03-17T07:42:50;8.30;87.20
4386;DHT22;2207;53.540;10.042;2024-03-17T07:45:20;8.20;87.20
4386;DHT22;2207;53.540;10.042;2024-03-17T07:47:50;8.20;86.30
4386;DHT22;2207;53.540;10.042;2024-03-17T07:50:17;8.10;85.40
4386;DHT22;2207;53.540;10.042;2024-03-17T07:52:43;8.00;85.40
4386;DHT22;2207;53.540;10.042;2024-03-17T07:55:11;8.00;85.80
4386;DHT22;2207;53.540;10.042;2024-03-17T07:57:38;8.00;82.70
4386;DHT22;2207;53.540;10.042;2024-03-17T08:00:06;7.90;82.10
4386;DHT22;2207;53.540;10.042;2024-03-17T08:02:44;8.00;81.80
4386;DHT22;2207;53.540;10.042;2024-03-17T08:05:11;7.90;79.20
4386;DHT22;2207;53.540;10.042;2024-03-17T08:07:37;8.00;79.10
4386;DHT22;2207;53.540;10.042;2024-03-17T08:10:05;8.00;77.50
4386;DHT22;2207;53.540;10.042;2024-03-17T08:12:32;8.10;76.50
4386;DHT22;2207;53.540;10.042;2024-03-17T08:14:58;8.00;76.90
4386;DHT22;2207;53.540;10.042;2024-03-17T08:17:25;8.10;76.40
4386;DHT22;2207;53.540;10.042;2024-03-17T08:19:54;8.20;75.50
4386;DHT22;2207;53.540;10.042;2024-03-17T08:22:23;8.20;73.80
4386;DHT22;2207;53.540;10.042;2024-03-17T08:24:50;8.30;72.20
4386;DHT22;2207;53.540;10.042;2024-03-17T08:27:16;8.20;68.10
4386;DHT22;2207;53.540;10.042;2024-03-17T08:29:43;8.20;68.60
4386;DHT22;2207;53.540;10.042;2024-03-17T08:32:10;8.20;69.20
4386;DHT22;2207;53.540;10.042;2024-03-17T08:34:37;8.30;68.50
4386;DHT22;2207;53.540;10.042;2024-03-17T08:37:05;8.40;67.90
4386;DHT22;2207;53.540;10.042;2024-03-17T08:39:34;8.40;66.30
4386;DHT22;2207;53.540;10.042;2024-03-17T08:42:01;8.50;64.40
4386;DHT22;2207;53.540;10.042;2024-03-17T08:44:28;8.50;65.20
4386;DHT22;2207;53.540;10.042;2024-03-17T08:46:55;8.50;65.20
4386;DHT22;2207;53.540;10.042;2024-03-17T08:49:22;8.60;63.50
4386;DHT22;2207;53.540;10.042;2024-03-17T08:51:49;8.60;63.00
4386;DHT22;2207;53.540;10.042;2024-03-17T08:54:17;8.50;59.70
4386;DHT22;2207;53.540;10.042;2024-03-17T08:56:44;8.50;60.90
4386;DHT22;2207;53.540;10.042;2024-03-17T08:59:11;8.50;60.10
4386;DHT22;2207;53.540;10.042;2024-03-17T09:01:38;8.50;59.20
4386;DHT22;2207;53.540;10.042;2024-03-17T09:04:05;8.60;59.30
4386;DHT22;2207;53.540;10.042;2024-03-17T09:06:32;8.60;58.60
4386;DHT22;2207;53.540;10.042;2024-03-17T09:09:00;8.60;56.50
4386;DHT22;2207;53.540;10.042;2024-03-17T09:11:29;8.50;54.70
4386;DHT22;2207;53.540;10.042;2024-03-17T09:13:55;8.50;55.30
4386;DHT22;2207;53.540;10.042;2024-03-17T09:16:22;8.60;56.20
4386;DHT22;2207;53.540;10.042;2024-03-17T09:18:50;8.60;55.60
4386;DHT22;2207;53.540;10.042;2024-03-17T09:21:17;8.70;55.60
4386;DHT22;2207;53.540;10.042;2024-03-17T09:23:44;8.70;55.30
4386;DHT22;2207;53.540;10.042;2024-03-17T09:26:12;8.70;55.20
4386;DHT22;2207;53.540;10.042;2024-03-17T09:28:42;8.80;55.60
4386;DHT22;2207;53.540;10.042;2024-03-17T09:31:10;8.90;55.60
4386;DHT22;2207;53.540;10.042;2024-03-17T09:33:38;8.90;54.90
4386;DHT22;2207;53.540;10.042;2024-03-17T09:36:06;8.90;53.70
4386;DHT22;2207;53.540;10.042;2024-03-17T09:38:33;8.90;52.90
4386;DHT22;2207;53.540;10.042;2024-03-17T09:41:01;8.80;52.80
4386;DHT22;2207;53.540;10.042;2024-03-17T09:43:29;8.70;52.90
4386;DHT22;2207;53.540;10.042;2024-03-17T09:45:57;8.70;52.50
4386;DHT22;2207;53.540;10.042;2024-03-17T09:48:25;8.60;52.80
4386;DHT22;2207;53.540;10.042;2024-03-17T09:50:54;8.60;53.00
4386;DHT22;2207;53.540;10.042;2024-03-17T09:53:24;8.70;52.70
4386;DHT22;2207;53.540;10.042;2024-03-17T09:55:51;8.80;52.90
4386;DHT22;2207;53.540;10.042;2024-03-17T09:58:19;9.00;52.80
4386;DHT22;2207;53.540;10.042;2024-03-17T10:00:46;9.20;52.70
4386;DHT22;2207;53.540;10.042;2024-03-17T10:03:44;9.20;51.80
4386;DHT22;2207;53.540;10.042;2024-03-17T10:06:12;9.20;52.00
4386;DHT22;2207;53.540;10.042;2024-03-17T10:08:43;9.20;51.90
4386;DHT22;2207;53.540;10.042;2024-03-17T10:11:11;9.30;51.30
4386;DHT22;2207;53.540;10.042;2024-03-17T10:13:38;9.40;51.20
4386;DHT22;2207;53.540;10.042;2024-03-17T10:16:05;9.50;51.20
4386;DHT22;2207;53.540;10.042;2024-03-17T10:18:33;9.60;50.20
4386;DHT22;2207;53.540;10.042;2024-03-17T10:21:00;9.60;49.70
4386;DHT22;2207;53.540;10.042;2024-03-17T10:23:27;9.60;50.20
4386;DHT22;2207;53.540;10.042;2024-03-17T10:25:54;9.80;50.30
4386;DHT22;2207;53.540;10.042;2024-03-17T10:28:21;10.10;49.30
4386;DHT22;2207;53.540;10.042;2024-03-17T10:30:58;10.30;48.10
4386;DHT22;2207;53.540;10.042;2024-03-17T10:33:26;10.40;47.60
4386;DHT22;2207;53.540;10.042;2024-03-17T10:36:01;10.50;47.10
4386;DHT22;2207;53.540;10.042;2024-03-17T10:38:30;10.60;47.30
4386;DHT22;2207;53.540;10.042;2024-03-17T10:40:58;10.70;47.40
4386;DHT22;2207;53.540;10.042;2024-03-17T10:43:25;10.90;47.40
4386;DHT22;2207;53.540;10.042;2024-03-17T10:45:53;10.90;46.50
4386;DHT22;2207;53.540;10.042;2024-03-17T10:48:21;10.80;45.90
4386;DHT22;2207;53.540;10.042;2024-03-17T10:50:53;10.70;46.30
4386;DHT22;2207;53.540;10.042;2024-03-17T10:53:26;10.70;46.90
4386;DHT22;2207;53.540;10.042;2024-03-17T10:56:00;10.70;47.00
4386;DHT22;2207;53.540;10.042;2024-03-17T10:58:34;10.80;47.20
4386;DHT22;2207;53.540;10.042;2024-03-17T11:01:03;10.80;47.40
4386;DHT22;2207;53.540;10.042;2024-03-17T11:03:31;10.70;46.90
4386;DHT22;2207;53.540;10.042;2024-03-17T11:05:59;10.50;46.90
4386;DHT22;2207;53.540;10.042;2024-03-17T11:08:31;10.40;47.60
4386;DHT22;2207;53.540;10.042;2024-03-17T11:10:59;10.40;47.70
4386;DHT22;2207;53.540;10.042;2024-03-17T11:13:27;10.50;48.10
4386;DHT22;2207;53.540;10.042;2024-03-17T11:15:54;10.50;47.70
4386;DHT22;2207;53.540;10.042;2024-03-17T11:18:41;10.50;47.80
4386;DHT22;2207;53.540;10.042;2024-03-17T11:21:19;10.70;47.80
4386;DHT22;2207;53.540;10.042;2024-03-17T11:23:59;10.90;47.70
4386;DHT22;2207;53.540;10.042;2024-03-17T11:26:28;11.00;47.60
4386;DHT22;2207;53.540;10.042;2024-03-17T11:28:55;11.10;47.50
4386;DHT22;2207;53.540;10.042;2024-03-17T11:31:41;11.30;47.50
4386;DHT22;2207;53.540;10.042;2024-03-17T11:34:25;11.40;47.20
4386;DHT22;2207;53.540;10.042;2024-03-17T11:36:54;11.50;47.00
4386;DHT22;2207;53.540;10.042;2024-03-17T11:39:50;11.60;46.60
4386;DHT22;2207;53.540;10.042;2024-03-17T11:42:21;11.70;46.10
4386;DHT22;2207;53.540;10.042;2024-03-17T11:45:02;11.70;45.30
4386;DHT22;2207;53.540;10.042;2024-03-17T11:47:36;11.60;45.30
4386;DHT22;2207;53.540;10.042;2024-03-17T11:50:04;11.50;45.30
4386;DHT22;2207;53.540;10.042;2024-03-17T11:52:31;11.40;45.20
4386;DHT22;2207;53.540;10.042;2024-03-17T11:54:58;11.20;44.50
4386;DHT22;2207;53.540;10.042;2024-03-17T11:57:25;10.90;44.70
4386;DHT22;2207;53.540;10.042;2024-03-17T11:59:52;10.90;44.90
4386;DHT22;2207;53.540;10.042;2024-03-17T12:02:20;10.80;45.20
4386;DHT22;2207;53.540;10.042;2024-03-17T12:04:47;10.90;45.30
4386;DHT22;2207;53.540;10.042;2024-03-17T12:07:16;10.90;45.10
4386;DHT22;2207;53.540;10.042;2024-03-17T12:09:43;11.10;45.30
4386;DHT22;2207;53.540;10.042;2024-03-17T12:12:17;11.10;45.00
4386;DHT22;2207;53.540;10.042;2024-03-17T12:14:43;11.20;44.90
4386;DHT22;2207;53.540;10.042;2024-03-17T12:17:10;11.20;44.90
4386;DHT22;2207;53.540;10.042;2024-03-17T12:19:37;11.20;44.60
4386;DHT22;2207;53.540;10.042;2024-03-17T12:22:05;11.20;44.70
4386;DHT22;2207;53.540;10.042;2024-03-17T12:24:32;11.30;44.90
4386;DHT22;2207;53.540;10.042;2024-03-17T12:27:00;11.30;44.80
4386;DHT22;2207;53.540;10.042;2024-03-17T12:29:30;11.40;44.80
4386;DHT22;2207;53.540;10.042;2024-03-17T12:31:59;11.50;44.80
4386;DHT22;2207;53.540;10.042;2024-03-17T12:34:28;11.50;44.50
4386;DHT22;2207;53.540;10.042;2024-03-17T12:36:57;11.50;44.20
4386;DHT22;2207;53.540;10.042;2024-03-17T12:39:24;11.40;44.10
4386;DHT22;2207;53.540;10.042;2024-03-17T12:42:06;11.40;44.10
4386;DHT22;2207;53.540;10.042;2024-03-17T12:44:34;11.30;43.90
4386;DHT22;2207;53.540;10.042;2024-03-17T12:47:02;11.30;44.10
4386;DHT22;2207;53.540;10.042;2024-03-17T12:49:31;11.20;44.20
4386;DHT22;2207;53.540;10.042;2024-03-17T12:51:58;11.10;44.30
4386;DHT22;2207;53.540;10.042;2024-03-17T12:54:25;11.00;44.30
4386;DHT22;2207;53.540;10.042;2024-03-17T12:57:03;10.80;44.30
4386;DHT22;2207;53.540;10.042;2024-03-17T12:59:49;10.70;44.70
4386;DHT22;2207;53.540;10.042;2024-03-17T13:02:33;10.60;44.70
4386;DHT22;2207;53.540;10.042;2024-03-17T13:05:16;10.60;44.90
4386;DHT22;2207;53.540;10.042;2024-03-17T13:07:43;10.60;44.90
4386;DHT22;2207;53.540;10.042;2024-03-17T13:10:12;10.50;44.80
4386;DHT22;2207;53.540;10.042;2024-03-17T13:12:43;10.60;44.70
4386;DHT22;2207;53.540;10.042;2024-03-17T13:15:14;10.60;44.70
4386;DHT22;2207;53.540;10.042;2024-03-17T13:17:41;10.60;44.70
4386;DHT22;2207;53.540;10.042;2024-03-17T13:20:12;10.60;44.70
4386;DHT22;2207;53.540;10.042;2024-03-17T13:22:40;10.70;44.80
4386;DHT22;2207;53.540;10.042;2024-03-17T13:25:09;10.60;44.60
4386;DHT22;2207;53.540;10.042;2024-03-17T13:27:39;10.70;44.60
4386;DHT22;2207;53.540;10.042;2024-03-17T13:30:07;10.70;44.60
4386;DHT22;2207;53.540;10.042;2024-03-17T13:32:36;10.70;44.40
4386;DHT22;2207;53.540;10.042;2024-03-17T13:35:04;10.60;44.10
4386;DHT22;2207;53.540;10.042;2024-03-17T13:37:31;10.60;43.80
4386;DHT22;2207;53.540;10.042;2024-03-17T13:39:58;10.60;44.00
4386;DHT22;2207;53.540;10.042;2024-03-17T13:42:30;10.50;43.90
4386;DHT22;2207;53.540;10.042;2024-03-17T13:44:57;10.50;44.10
4386;DHT22;2207;53.540;10.042;2024-03-17T13:47:24;10.50;44.20
4386;DHT22;2207;53.540;10.042;2024-03-17T13:49:53;10.60;44.20
4386;DHT22;2207;53.540;10.042;2024-03-17T13:52:19;10.60;44.10
4386;DHT22;2207;53.540;10.042;2024-03-17T13:54:47;10.70;44.30
4386;DHT22;2207;53.540;10.042;2024-03-17T13:57:13;10.80;44.30
4386;DHT22;2207;53.540;10.042;2024-03-17T13:59:41;10.80;44.30
4386;DHT22;2207;53.540;10.042;2024-03-17T14:02:12;10.90;44.30
4386;DHT22;2207;53.540;10.042;2024-03-17T14:04:39;10.90;44.20
4386;DHT22;2207;53.540;10.042;2024-03-17T14:07:07;10.90;44.30
4386;DHT22;2207;53.540;10.042;2024-03-17T14:09:34;11.00;44.40
4386;DHT22;2207;53.540;10.042;2024-03-17T14:12:00;10.90;44.30
4386;DHT22;2207;53.540;10.042;2024-03-17T14:14:27;10.80;44.20
4386;DHT22;2207;53.540;10.042;2024-03-17T14:16:54;10.80;44.40
4386;DHT22;2207;53.540;10.042;2024-03-17T14:19:22;10.70;44.40
4386;DHT22;2207;53.540;10.042;2024-03-17T14:21:49;10.60;44.60
4386;DHT22;2207;53.540;10.042;2024-03-17T14:24:18;10.40;44.80
4386;DHT22;2207;53.540;10.042;2024-03-17T14:26:44;10.30;45.00
4386;DHT22;2207;53.540;10.042;2024-03-17T14:29:11;10.40;45.20
4386;DHT22;2207;53.540;10.042;2024-03-17T14:31:41;10.60;45.20
4386;DHT22;2207;53.540;10.042;2024-03-17T14:34:09;10.90;44.90
4386;DHT22;2207;53.540;10.042;2024-03-17T14:36:36;11.20;44.60
4386;DHT22;2207;53.540;10.042;2024-03-17T14:39:03;11.50;44.30
4386;DHT22;2207;53.540;10.042;2024-03-17T14:41:31;11.80;43.80
4386;DHT22;2207;53.540;10.042;2024-03-17T14:43:59;12.00;43.20
4386;DHT22;2207;53.540;10.042;2024-03-17T14:46:26;12.00;42.10
4386;DHT22;2207;53.540;10.042;2024-03-17T14:48:54;12.00;41.40
4386;DHT22;2207;53.540;10.042;2024-03-17T14:51:21;12.00;41.60
4386;DHT22;2207;53.540;10.042;2024-03-17T14:53:48;12.00;41.20
4386;DHT22;2207;53.540;10.042;2024-03-17T14:56:16;12.00;41.60
4386;DHT22;2207;53.540;10.042;2024-03-17T14:58:45;11.90;41.70
4386;DHT22;2207;53.540;10.042;2024-03-17T15:01:13;11.80;42.00
4386;DHT22;2207;53.540;10.042;2024-03-17T15:03:40;11.70;41.80
4386;DHT22;2207;53.540;10.042;2024-03-17T15:06:11;11.60;42.00
4386;DHT22;2207;53.540;10.042;2024-03-17T15:08:38;11.60;42.40
4386;DHT22;2207;53.540;10.042;2024-03-17T15:11:05;11.70;42.50
4386;DHT22;2207;53.540;10.042;2024-03-17T15:13:35;11.70;42.80
4386;DHT22;2207;53.540;10.042;2024-03-17T15:16:03;11.80;43.00
4386;DHT22;2207;53.540;10.042;2024-03-17T15:18:31;11.80;43.20
4386;DHT22;2207;53.540;10.042;2024-03-17T15:20:59;11.70;43.10
4386;DHT22;2207;53.540;10.042;2024-03-17T15:23:27;11.80;43.20
4386;DHT22;2207;53.540;10.042;2024-03-17T15:26:01;11.80;43.20
4386;DHT22;2207;53.540;10.042;2024-03-17T15:28:33;11.50;43.40
4386;DHT22;2207;53.540;10.042;2024-03-17T15:31:03;11.30;44.10
4386;DHT22;2207;53.540;10.042;2024-03-17T15:33:31;11.10;44.40
4386;DHT22;2207;53.540;10.042;2024-03-17T15:36:00;10.90;44.60
4386;DHT22;2207;53.540;10.042;2024-03-17T15:38:29;10.60;44.90
4386;DHT22;2207;53.540;10.042;2024-03-17T15:40:57;10.30;45.50
4386;DHT22;2207;53.540;10.042;2024-03-17T15:43:24;10.10;46.10
4386;DHT22;2207;53.540;10.042;2024-03-17T15:45:51;10.00;46.50
4386;DHT22;2207;53.540;10.042;2024-03-17T15:48:18;9.80;47.80
4386;DHT22;2207;53.540;10.042;2024-03-17T15:50:53;9.80;48.20
4386;DHT22;2207;53.540;10.042;2024-03-17T15:53:20;9.70;48.50
4386;DHT22;2207;53.540;10.042;2024-03-17T15:55:53;9.70;48.70
4386;DHT22;2207;53.540;10.042;2024-03-17T15:58:20;9.60;48.90
4386;DHT22;2207;53.540;10.042;2024-03-17T16:00:47;9.50;49.20
4386;DHT22;2207;53.540;10.042;2024-03-17T16:03:14;9.50;49.40
4386;DHT22;2207;53.540;10.042;2024-03-17T16:05:46;9.40;49.60